City Of Cleveland — WDC2358 — position and weather

sailwx.info

Track history (hours):
 
Tides and Currents Weather Stations Pressure Air Temp Water Temp Dewpoint Dewpoint Depression Visibility Wind Speed Wind Dir Waves Ship Positions

City Of Cleveland

Owner: JANTRAN, INC., ROSEDALE, MS. More information available from US FCC via Universal Licensing System and Coast Guard Vessel Documentation Center.

Last reported at 2016-Jul-01 07:34 UTC. Time now 2016-Jul-01 08:17 UTC.
Position N 32°01' W 091°04'.

Length 42 m; draft 12.5 m.

Type: Towing. MMSI: 366991810.

Date/timePositionNaut miles runAvg speedWind from/ knotsBaromVisibWave heightAir tempDewpointWater temp
2016-Jul-01 07:34N 32°01' W 091°04'4 4.0
2016-Jul-01 06:33N 31°59' W 091°08'5 4.3
2016-Jul-01 05:26N 31°55' W 091°12'4 4.3
2016-Jul-01 04:33N 31°52' W 091°15'5 4.1
2016-Jul-01 03:20N 31°51' W 091°20'  
2016-Jun-28 20:21N 29°56' W 090°13'3 4.2
2016-Jun-28 19:33N 29°57' W 090°09'4 3.7
2016-Jun-28 18:34N 29°54' W 090°07'0 0.0
2016-Jun-28 17:34N 29°54' W 090°07'0 0.1
2016-Jun-28 16:34N 29°54' W 090°07'0 0.1
2016-Jun-28 15:33N 29°54' W 090°07'0 0.0
2016-Jun-28 14:33N 29°54' W 090°07'0 0.0
2016-Jun-28 13:34N 29°54' W 090°07'0 0.0
2016-Jun-28 12:33N 29°54' W 090°07'0 0.0
2016-Jun-28 11:34N 29°54' W 090°07'0 0.0
2016-Jun-28 10:34N 29°54' W 090°07'0 0.0
2016-Jun-28 09:34N 29°54' W 090°07'0 0.0
2016-Jun-28 08:33N 29°54' W 090°07'0 0.0
2016-Jun-28 07:33N 29°54' W 090°07'0 0.0
2016-Jun-28 06:34N 29°54' W 090°07'0 0.0
2016-Jun-28 04:34N 29°54' W 090°07'0 0.1
2016-Jun-28 03:34N 29°54' W 090°07'0 0.1
2016-Jun-28 02:33N 29°54' W 090°07'0 0.0
2016-Jun-28 01:33N 29°54' W 090°07'4 3.7
2016-Jun-28 00:34N 29°57' W 090°04'5 4.9
2016-Jun-27 23:33N 29°56' W 089°58'4 4.1
2016-Jun-27 22:28N 29°52' W 089°55'3 3.3
2016-Jun-27 21:33N 29°52' W 089°58'4 4.1
2016-Jun-27 20:32N 29°48' W 090°00'4 3.6
2016-Jun-27 19:33N 29°44' W 090°00'3 0.1
2016-Jun-26 00:25N 29°47' W 090°01'6 7.3
2016-Jun-25 23:34N 29°53' W 089°57'3 3.2
2016-Jun-25 22:33N 29°56' W 089°58'6 6.2
2016-Jun-25 21:33N 29°55' W 090°06'4 4.0
2016-Jun-25 20:31N 29°57' W 090°10'0 0.0
2016-Jun-25 19:30N 29°57' W 090°10'0 0.1
2016-Jun-25 18:34N 29°57' W 090°10'3 2.8
2016-Jun-25 17:25N 29°57' W 090°13'1 1.1
2016-Jun-25 16:11N 29°58' W 090°15'0 0.0
2016-Jun-25 15:33N 29°58' W 090°15'132 2.9
2016-Jun-23 17:32N 32°03' W 091°04'5 5.5
2016-Jun-23 16:33N 32°08' W 091°06'6 5.8
2016-Jun-23 15:34N 32°11' W 090°60'8 7.6
2016-Jun-23 14:34N 32°17' W 090°56'5 4.7
2016-Jun-23 13:33N 32°21' W 090°59'6 6.3
2016-Jun-23 12:34N 32°26' W 091°04'7 6.8
2016-Jun-23 11:34N 32°33' W 091°06'7 7.1
2016-Jun-23 10:33N 32°40' W 091°08'  
Track history (hours):
 
Tides and Currents Weather Stations Pressure Air Temp Water Temp Dewpoint Dewpoint Depression Visibility Wind Speed Wind Dir Waves Ship Positions

City Of Cleveland

Owner: JANTRAN, INC., ROSEDALE, MS. More information available from US FCC via Universal Licensing System and Coast Guard Vessel Documentation Center.

Last reported at 2016-Jul-01 07:34 UTC. Time now 2016-Jul-01 08:17 UTC.
Position N 32°01' W 091°04'.

Length 42 m; draft 12.5 m.

Type: Towing. MMSI: 366991810.

Date/timePositionNaut miles runAvg speedWind from/ knotsBaromVisibWave heightAir tempDewpointWater temp
2016-Jul-01 07:34N 32°01' W 091°04'4 4.0
2016-Jul-01 06:33N 31°59' W 091°08'5 4.3
2016-Jul-01 05:26N 31°55' W 091°12'4 4.3
2016-Jul-01 04:33N 31°52' W 091°15'5 4.1
2016-Jul-01 03:20N 31°51' W 091°20'  
2016-Jun-28 20:21N 29°56' W 090°13'3 4.2
2016-Jun-28 19:33N 29°57' W 090°09'4 3.7
2016-Jun-28 18:34N 29°54' W 090°07'0 0.0
2016-Jun-28 17:34N 29°54' W 090°07'0 0.1
2016-Jun-28 16:34N 29°54' W 090°07'0 0.1
2016-Jun-28 15:33N 29°54' W 090°07'0 0.0
2016-Jun-28 14:33N 29°54' W 090°07'0 0.0
2016-Jun-28 13:34N 29°54' W 090°07'0 0.0
2016-Jun-28 12:33N 29°54' W 090°07'0 0.0
2016-Jun-28 11:34N 29°54' W 090°07'0 0.0
2016-Jun-28 10:34N 29°54' W 090°07'0 0.0
2016-Jun-28 09:34N 29°54' W 090°07'0 0.0
2016-Jun-28 08:33N 29°54' W 090°07'0 0.0
2016-Jun-28 07:33N 29°54' W 090°07'0 0.0
2016-Jun-28 06:34N 29°54' W 090°07'0 0.0
2016-Jun-28 04:34N 29°54' W 090°07'0 0.1
2016-Jun-28 03:34N 29°54' W 090°07'0 0.1
2016-Jun-28 02:33N 29°54' W 090°07'0 0.0
2016-Jun-28 01:33N 29°54' W 090°07'4 3.7
2016-Jun-28 00:34N 29°57' W 090°04'5 4.9
2016-Jun-27 23:33N 29°56' W 089°58'4 4.1
2016-Jun-27 22:28N 29°52' W 089°55'3 3.3
2016-Jun-27 21:33N 29°52' W 089°58'4 4.1
2016-Jun-27 20:32N 29°48' W 090°00'4 3.6
2016-Jun-27 19:33N 29°44' W 090°00'3 0.1
2016-Jun-26 00:25N 29°47' W 090°01'6 7.3
2016-Jun-25 23:34N 29°53' W 089°57'3 3.2
2016-Jun-25 22:33N 29°56' W 089°58'6 6.2
2016-Jun-25 21:33N 29°55' W 090°06'4 4.0
2016-Jun-25 20:31N 29°57' W 090°10'0 0.0
2016-Jun-25 19:30N 29°57' W 090°10'0 0.1
2016-Jun-25 18:34N 29°57' W 090°10'3 2.8
2016-Jun-25 17:25N 29°57' W 090°13'1 1.1
2016-Jun-25 16:11N 29°58' W 090°15'0 0.0
2016-Jun-25 15:33N 29°58' W 090°15'132 2.9
2016-Jun-23 17:32N 32°03' W 091°04'5 5.5
2016-Jun-23 16:33N 32°08' W 091°06'6 5.8
2016-Jun-23 15:34N 32°11' W 090°60'8 7.6
2016-Jun-23 14:34N 32°17' W 090°56'5 4.7
2016-Jun-23 13:33N 32°21' W 090°59'6 6.3
2016-Jun-23 12:34N 32°26' W 091°04'7 6.8
2016-Jun-23 11:34N 32°33' W 091°06'7 7.1
2016-Jun-23 10:33N 32°40' W 091°08'  

Dump ship's entire track history